Time;durP1;ratioP1;P1;durP2;ratioP2;P2;SDS_P1;SDS_P2;PMS_P1;PMS_P2;Temp;Humidity;BMP_temperature;BMP_pressure;BME280_temperature;BME280_humidity;BME280_pressure;Samples;Min_cycle;Max_cycle;Signal;HPM_P1;HPM_P2
2022/07/15 00:02:21;;;;;;;4.75;1.50;;;13.70;99.90;;;;;;5078283;28;20044;-74
2022/07/15 00:04:46;;;;;;;6.13;1.90;;;13.60;99.90;;;;;;5095006;28;20054;-72
2022/07/15 00:07:13;;;;;;;5.20;1.60;;;13.50;99.90;;;;;;5095331;28;20479;-72
2022/07/15 00:12:23;;;;;;;5.13;1.50;;;13.50;99.90;;;;;;5094720;28;20407;-73
2022/07/15 00:14:49;;;;;;;5.40;1.90;;;13.50;99.90;;;;;;5092821;28;20043;-72
2022/07/15 00:17:15;;;;;;;6.35;1.70;;;13.50;99.90;;;;;;5094066;28;20059;-74
2022/07/15 00:19:41;;;;;;;5.40;1.60;;;13.50;99.90;;;;;;5095500;28;20048;-72
2022/07/15 00:22:07;;;;;;;5.80;1.95;;;13.50;99.90;;;;;;5065020;28;20055;-73
2022/07/15 00:24:33;;;;;;;7.00;1.90;;;13.50;99.90;;;;;;5078404;28;20407;-72
2022/07/15 00:26:59;;;;;;;7.10;1.80;;;13.50;99.90;;;;;;5095000;28;20063;-74
2022/07/15 00:29:25;;;;;;;6.25;1.80;;;13.40;99.90;;;;;;5094849;28;20050;-73
2022/07/15 00:31:53;;;;;;;5.80;1.67;;;13.50;99.90;;;;;;5094167;28;20051;-74
2022/07/15 00:34:18;;;;;;;6.07;2.00;;;13.40;99.90;;;;;;5085734;28;20044;-73
2022/07/15 00:36:44;;;;;;;5.03;1.60;;;13.40;99.90;;;;;;5096314;28;20552;-73
2022/07/15 00:39:10;;;;;;;10.20;2.15;;;13.40;99.90;;;;;;5094194;28;20043;-73
2022/07/15 00:41:40;;;;;;;9.05;2.40;;;13.30;99.90;;;;;;5095542;28;20056;-73
2022/07/15 00:44:06;;;;;;;9.05;2.20;;;13.30;99.90;;;;;;5077563;28;20044;-72
2022/07/15 00:46:32;;;;;;;7.28;2.20;;;13.30;99.90;;;;;;5095458;28;20101;-74
2022/07/15 00:48:59;;;;;;;8.32;2.22;;;13.30;99.90;;;;;;5094812;28;20119;-73
2022/07/15 00:51:25;;;;;;;8.25;2.00;;;13.30;99.90;;;;;;5063975;28;20055;-74
2022/07/15 00:53:53;;;;;;;7.85;1.92;;;13.30;99.90;;;;;;5078251;28;20098;-75
2022/07/15 00:56:22;;;;;;;8.55;2.10;;;13.30;99.90;;;;;;5078124;28;20059;-73
2022/07/15 00:58:51;;;;;;;7.45;2.20;;;13.30;99.90;;;;;;5094345;28;20065;-72
2022/07/15 01:01:20;;;;;;;8.50;2.28;;;13.40;99.90;;;;;;5064454;28;20045;-73
2022/07/15 01:03:49;;;;;;;8.02;2.30;;;13.30;99.90;;;;;;5094450;28;20071;-73
2022/07/15 01:06:15;;;;;;;8.85;2.63;;;13.30;99.90;;;;;;5088353;28;20062;-75
2022/07/15 01:08:40;;;;;;;9.85;2.53;;;13.30;99.90;;;;;;5094071;28;20120;-72
2022/07/15 01:11:06;;;;;;;8.45;2.25;;;13.30;99.90;;;;;;5094142;28;20178;-73
2022/07/15 01:13:32;;;;;;;9.35;2.38;;;13.30;99.90;;;;;;5094232;28;20044;-75
2022/07/15 01:15:58;;;;;;;7.97;2.17;;;13.30;99.90;;;;;;5077470;28;20047;-73
2022/07/15 01:18:23;;;;;;;8.63;2.50;;;13.20;99.90;;;;;;5077147;28;20551;-74
2022/07/15 01:20:49;;;;;;;10.38;2.78;;;13.20;99.90;;;;;;5094704;28;20062;-72
2022/07/15 01:23:16;;;;;;;10.15;2.70;;;13.30;99.90;;;;;;5094474;28;20056;-73
2022/07/15 01:25:44;;;;;;;8.27;2.60;;;13.20;99.90;;;;;;5072397;28;20552;-73
2022/07/15 01:28:11;;;;;;;8.55;2.60;;;13.20;99.90;;;;;;5073523;28;20084;-74
2022/07/15 01:30:37;;;;;;;9.40;2.50;;;13.20;99.90;;;;;;5073475;28;21589;-73
2022/07/15 01:33:03;;;;;;;10.00;2.45;;;13.10;99.90;;;;;;5077501;28;20122;-73
2022/07/15 01:35:29;;;;;;;7.97;2.60;;;13.10;99.90;;;;;;5094148;28;20075;-74
2022/07/15 01:37:55;;;;;;;10.18;2.78;;;13.10;99.90;;;;;;5087002;28;20045;-73
2022/07/15 01:40:21;;;;;;;8.38;2.40;;;13.10;99.90;;;;;;5074321;28;20135;-72
2022/07/15 01:42:46;;;;;;;8.63;2.30;;;13.10;99.90;;;;;;5078481;28;20475;-73
2022/07/15 01:45:13;;;;;;;9.20;2.40;;;13.20;99.90;;;;;;5093193;28;20104;-73
2022/07/15 01:47:47;;;;;;;8.80;2.50;;;13.20;99.90;;;;;;5076978;28;20052;-73
2022/07/15 01:50:13;;;;;;;7.65;2.40;;;13.20;99.90;;;;;;5077231;28;20063;-74
2022/07/15 01:52:39;;;;;;;7.93;2.10;;;13.30;99.90;;;;;;5093798;28;20052;-75
2022/07/15 01:55:06;;;;;;;9.07;2.33;;;13.30;99.90;;;;;;5085774;28;20376;-74
2022/07/15 01:57:32;;;;;;;9.52;2.50;;;13.30;99.90;;;;;;5077265;28;20056;-75
2022/07/15 01:59:58;;;;;;;9.52;2.50;;;13.20;99.90;;;;;;5093789;28;20055;-74
2022/07/15 02:02:23;;;;;;;8.93;2.42;;;13.20;99.90;;;;;;5093558;28;20479;-74
2022/07/15 02:04:49;;;;;;;11.27;2.42;;;13.20;99.90;;;;;;5093258;28;20032;-73
2022/07/15 02:07:15;;;;;;;8.20;2.22;;;13.20;99.90;;;;;;5093545;28;20040;-73
2022/07/15 02:09:41;;;;;;;9.27;2.40;;;13.20;99.90;;;;;;5093306;28;20047;-72
2022/07/15 02:12:07;;;;;;;9.07;2.35;;;13.20;99.90;;;;;;5110539;28;20036;-73
2022/07/15 02:14:36;;;;;;;9.80;2.28;;;13.20;99.90;;;;;;5092838;28;20119;-73
2022/07/15 02:17:02;;;;;;;12.13;2.53;;;13.10;99.90;;;;;;5046951;28;20051;-72
2022/07/15 02:19:28;;;;;;;8.82;2.50;;;13.10;99.90;;;;;;5093052;28;20048;-72
2022/07/15 02:21:54;;;;;;;7.57;2.10;;;13.10;99.90;;;;;;5092907;28;20109;-72
2022/07/15 02:24:19;;;;;;;9.93;2.70;;;13.00;99.90;;;;;;5093253;28;20498;-73
2022/07/15 02:26:46;;;;;;;8.68;2.30;;;13.00;99.90;;;;;;5085521;28;20051;-73
2022/07/15 02:29:12;;;;;;;7.03;2.22;;;13.00;99.90;;;;;;5092522;28;20110;-72
2022/07/15 02:31:38;;;;;;;7.80;2.20;;;12.90;99.90;;;;;;5092777;28;20047;-74
2022/07/15 02:34:04;;;;;;;8.43;2.25;;;12.90;99.90;;;;;;5076096;28;20591;-75
2022/07/15 02:36:30;;;;;;;8.13;2.35;;;12.90;99.90;;;;;;5093039;28;20059;-73
2022/07/15 02:38:56;;;;;;;7.47;2.28;;;13.00;99.90;;;;;;5075361;28;20140;-73
2022/07/15 02:41:23;;;;;;;10.85;2.38;;;13.00;99.90;;;;;;5076468;28;20059;-72
2022/07/15 02:43:49;;;;;;;7.75;2.25;;;13.00;99.90;;;;;;5087913;28;20047;-73
2022/07/15 02:46:15;;;;;;;9.40;2.03;;;12.90;99.90;;;;;;5093115;28;20399;-73
2022/07/15 02:48:41;;;;;;;9.52;2.88;;;13.00;99.90;;;;;;5069253;28;20036;-73
2022/07/15 02:51:07;;;;;;;8.68;2.30;;;12.90;99.90;;;;;;5064734;28;20040;-73
2022/07/15 02:53:34;;;;;;;9.27;2.40;;;12.90;99.90;;;;;;5064618;28;20569;-73
2022/07/15 02:56:00;;;;;;;8.93;2.65;;;12.90;99.90;;;;;;5072617;28;20050;-73
2022/07/15 02:58:31;;;;;;;8.98;1.90;;;12.80;99.90;;;;;;5092559;28;20474;-74
2022/07/15 03:00:58;;;;;;;7.25;2.10;;;12.80;99.90;;;;;;5074725;28;20071;-73
2022/07/15 03:03:28;;;;;;;7.80;2.03;;;12.90;99.90;;;;;;5092396;28;20075;-74
2022/07/15 03:05:56;;;;;;;8.27;2.42;;;12.90;99.90;;;;;;5055888;28;20491;-73
2022/07/15 03:08:22;;;;;;;8.65;2.20;;;12.80;99.90;;;;;;5085531;28;20093;-72
2022/07/15 03:10:48;;;;;;;5.15;1.80;;;12.80;99.90;;;;;;5068074;28;20039;-72
2022/07/15 03:13:13;;;;;;;5.90;1.88;;;12.70;99.90;;;;;;5091652;28;20036;-72
2022/07/15 03:15:39;;;;;;;8.25;2.25;;;12.70;99.90;;;;;;5091181;28;20445;-72
2022/07/15 03:18:05;;;;;;;7.68;2.13;;;12.80;99.90;;;;;;5089646;28;20044;-72
2022/07/15 03:20:30;;;;;;;7.28;2.00;;;12.70;99.90;;;;;;5071856;28;20051;-72
2022/07/15 03:22:56;;;;;;;7.38;2.15;;;12.70;99.90;;;;;;5069541;28;20044;-73
2022/07/15 03:25:22;;;;;;;5.20;1.92;;;12.70;99.90;;;;;;5086028;28;20097;-72
2022/07/15 03:27:48;;;;;;;6.72;1.90;;;12.70;99.90;;;;;;5083655;28;20056;-73
2022/07/15 03:30:14;;;;;;;7.63;2.38;;;12.70;99.90;;;;;;5076399;28;20048;-73
2022/07/15 03:32:40;;;;;;;7.07;2.35;;;12.60;99.90;;;;;;5092022;28;20067;-72
2022/07/15 03:35:06;;;;;;;7.97;2.17;;;12.60;99.90;;;;;;5072756;28;20051;-73
2022/07/15 03:37:32;;;;;;;8.18;2.30;;;12.50;99.90;;;;;;5063031;28;20489;-72
2022/07/15 03:39:58;;;;;;;6.10;2.05;;;12.40;99.90;;;;;;5091657;28;20128;-73
2022/07/15 03:42:24;;;;;;;8.35;2.38;;;12.40;99.90;;;;;;5078192;28;20089;-73
2022/07/15 03:44:50;;;;;;;7.72;2.10;;;12.40;99.90;;;;;;5078618;28;20048;-72
2022/07/15 03:47:15;;;;;;;5.95;2.00;;;12.30;99.90;;;;;;5067791;28;20040;-72
2022/07/15 03:49:41;;;;;;;8.35;2.30;;;12.30;99.90;;;;;;5060278;28;20117;-72
2022/07/15 03:52:07;;;;;;;7.95;2.17;;;12.30;99.90;;;;;;5090450;28;20075;-72
2022/07/15 03:54:33;;;;;;;7.18;2.58;;;12.30;99.90;;;;;;5064855;28;20072;-72
2022/07/15 03:56:59;;;;;;;7.32;2.03;;;12.30;99.90;;;;;;5092036;28;20070;-72
2022/07/15 03:59:25;;;;;;;8.05;2.17;;;12.20;99.90;;;;;;5073831;28;20452;-73
2022/07/15 04:01:52;;;;;;;8.93;2.10;;;12.20;99.90;;;;;;5091447;28;20083;-74
2022/07/15 04:04:18;;;;;;;8.95;2.38;;;12.20;99.90;;;;;;5091055;28;20494;-73
2022/07/15 04:06:43;;;;;;;8.15;2.03;;;12.20;99.90;;;;;;5092121;28;20052;-73
2022/07/15 04:09:10;;;;;;;9.55;2.58;;;12.20;99.90;;;;;;5060217;28;20499;-73
2022/07/15 04:11:36;;;;;;;10.05;2.88;;;12.20;99.90;;;;;;5074823;28;20059;-72
2022/07/15 04:14:01;;;;;;;8.90;2.88;;;12.20;99.90;;;;;;5091089;28;20490;-72
2022/07/15 04:16:28;;;;;;;9.55;2.95;;;12.20;99.90;;;;;;5060706;28;20531;-73
2022/07/15 04:18:54;;;;;;;8.40;2.75;;;12.20;99.90;;;;;;5062821;28;20056;-72
2022/07/15 04:21:20;;;;;;;9.32;2.72;;;12.10;99.90;;;;;;5075768;28;20132;-73
2022/07/15 04:23:46;;;;;;;9.15;2.60;;;12.10;99.90;;;;;;5081501;28;20049;-73
2022/07/15 04:26:11;;;;;;;10.90;3.10;;;12.10;99.90;;;;;;5072580;28;20049;-75
2022/07/15 04:28:37;;;;;;;10.20;3.05;;;12.10;99.90;;;;;;5086746;28;20084;-73
2022/07/15 04:31:03;;;;;;;10.80;3.00;;;12.10;99.90;;;;;;5058805;28;20380;-73
2022/07/15 04:33:28;;;;;;;11.15;2.88;;;12.10;99.90;;;;;;5073693;28;20036;-73
2022/07/15 04:35:54;;;;;;;11.80;2.63;;;12.10;99.90;;;;;;5092595;28;20051;-72
2022/07/15 04:38:20;;;;;;;9.73;2.80;;;12.10;99.90;;;;;;5091635;28;20415;-72
2022/07/15 04:40:46;;;;;;;10.88;2.95;;;12.10;99.90;;;;;;5092852;28;20323;-73
2022/07/15 04:43:12;;;;;;;9.13;2.90;;;12.20;99.90;;;;;;5077818;28;20517;-73
2022/07/15 04:45:38;;;;;;;10.18;3.08;;;12.20;99.90;;;;;;5086421;28;20051;-72
2022/07/15 04:50:45;;;;;;;9.32;2.95;;;12.20;99.90;;;;;;5090000;28;20040;-72
2022/07/15 04:50:51;;;;;;;11.20;3.00;;;12.20;99.90;;;;;;5078781;28;20059;-73
2022/07/15 04:53:19;;;;;;;10.70;3.00;;;12.30;99.90;;;;;;5083596;28;20059;-73
2022/07/15 04:55:46;;;;;;;9.32;2.70;;;12.40;99.90;;;;;;5077260;28;20494;-73
2022/07/15 04:58:14;;;;;;;10.20;2.88;;;12.50;99.90;;;;;;5068618;28;20400;-73
2022/07/15 05:00:45;;;;;;;9.27;2.90;;;12.50;99.90;;;;;;5058363;28;20045;-73
2022/07/15 05:03:11;;;;;;;9.57;2.97;;;12.60;99.90;;;;;;5095119;28;20044;-73
2022/07/15 05:05:36;;;;;;;11.43;3.25;;;12.70;99.90;;;;;;5082544;28;20059;-73
2022/07/15 05:08:03;;;;;;;9.23;2.85;;;12.80;99.90;;;;;;5088134;28;20114;-74
2022/07/15 05:10:28;;;;;;;10.80;2.97;;;12.90;99.90;;;;;;5074327;28;20067;-74
2022/07/15 05:12:54;;;;;;;11.40;2.92;;;12.90;99.90;;;;;;5088933;28;20048;-72
2022/07/15 05:15:20;;;;;;;12.55;3.22;;;13.00;99.90;;;;;;5084129;28;20047;-73
2022/07/15 05:17:46;;;;;;;7.80;2.60;;;13.00;99.90;;;;;;5079685;28;20048;-72
2022/07/15 05:20:11;;;;;;;8.95;2.53;;;13.10;99.90;;;;;;5085775;28;20056;-72
2022/07/15 05:22:37;;;;;;;9.30;3.05;;;13.20;99.90;;;;;;5088390;28;20041;-72
2022/07/15 05:25:03;;;;;;;12.43;2.95;;;13.20;99.90;;;;;;5094166;28;20364;-73
2022/07/15 05:27:29;;;;;;;11.15;2.80;;;13.30;99.90;;;;;;5093745;28;20057;-73
2022/07/15 05:29:54;;;;;;;8.68;2.70;;;13.40;99.90;;;;;;5075200;28;20492;-72
2022/07/15 05:32:20;;;;;;;9.15;2.78;;;13.40;99.90;;;;;;5093040;28;20479;-74
2022/07/15 05:34:46;;;;;;;10.82;2.90;;;13.50;99.90;;;;;;5094559;28;20399;-73
2022/07/15 05:37:12;;;;;;;10.07;2.50;;;13.60;99.90;;;;;;5086875;28;20143;-73
2022/07/15 05:39:53;;;;;;;10.70;2.75;;;13.50;99.90;;;;;;5089496;28;20079;-75
2022/07/15 05:42:20;;;;;;;11.15;2.70;;;13.60;99.90;;;;;;5070192;28;20054;-73
2022/07/15 05:44:46;;;;;;;10.43;2.70;;;13.60;99.90;;;;;;5087020;28;20041;-74
2022/07/15 05:47:11;;;;;;;12.20;2.60;;;13.70;99.90;;;;;;5086786;28;20054;-73
2022/07/15 05:49:37;;;;;;;10.77;2.65;;;13.80;99.90;;;;;;5082995;28;20394;-73
2022/07/15 05:52:03;;;;;;;9.43;2.45;;;13.90;99.90;;;;;;5075924;28;20101;-70
2022/07/15 05:54:29;;;;;;;8.73;2.38;;;14.00;99.90;;;;;;5088941;28;20098;-72
2022/07/15 05:56:55;;;;;;;9.20;2.00;;;14.00;99.90;;;;;;5092146;28;20441;-73
2022/07/15 05:59:20;;;;;;;7.90;2.17;;;14.10;99.90;;;;;;5081044;28;20123;-73
2022/07/15 06:01:46;;;;;;;9.00;2.20;;;14.20;99.90;;;;;;5090565;28;20085;-72
2022/07/15 06:04:13;;;;;;;6.30;1.90;;;14.20;99.90;;;;;;5092731;28;20092;-72
2022/07/15 06:06:39;;;;;;;6.32;1.90;;;14.30;99.90;;;;;;5093863;28;20048;-72
2022/07/15 06:09:05;;;;;;;9.30;1.80;;;14.30;99.90;;;;;;5075680;28;20048;-72
2022/07/15 06:11:30;;;;;;;6.82;1.75;;;14.30;99.90;;;;;;5088566;28;20040;-72
2022/07/15 06:13:56;;;;;;;8.25;1.80;;;14.40;99.90;;;;;;5093552;28;20044;-72
2022/07/15 06:16:22;;;;;;;6.88;1.70;;;14.50;99.90;;;;;;5074543;28;20036;-74
2022/07/15 06:18:50;;;;;;;6.53;1.50;;;14.50;99.90;;;;;;5092081;28;20122;-71
2022/07/15 06:21:16;;;;;;;7.78;1.70;;;14.60;99.90;;;;;;5082876;28;20388;-72
2022/07/15 06:23:41;;;;;;;7.20;1.70;;;14.50;99.90;;;;;;5076088;28;20039;-72
2022/07/15 06:26:07;;;;;;;5.38;1.30;;;14.50;99.90;;;;;;5089053;28;20040;-72
2022/07/15 06:28:33;;;;;;;6.30;1.60;;;14.50;99.90;;;;;;5075284;28;20040;-77
2022/07/15 06:30:58;;;;;;;7.35;1.42;;;14.40;99.90;;;;;;5092874;28;20060;-73
2022/07/15 06:33:25;;;;;;;6.40;1.27;;;14.50;99.90;;;;;;5090578;28;20040;-72
2022/07/15 06:35:50;;;;;;;5.35;1.30;;;14.80;99.90;;;;;;5076396;28;20059;-73
2022/07/15 06:38:16;;;;;;;5.32;1.20;;;15.40;99.90;;;;;;5090612;28;20032;-72
2022/07/15 06:40:42;;;;;;;6.28;1.40;;;16.40;99.90;;;;;;5092644;28;20503;-73
2022/07/15 06:43:08;;;;;;;3.55;1.00;;;16.70;99.90;;;;;;5072301;28;20052;-73
2022/07/15 06:45:33;;;;;;;5.45;1.08;;;16.90;99.90;;;;;;5087571;28;20047;-73
2022/07/15 06:47:59;;;;;;;5.05;1.00;;;17.00;99.90;;;;;;5093860;28;20032;-73
2022/07/15 06:50:25;;;;;;;4.05;1.02;;;17.30;99.90;;;;;;5083907;28;20121;-72
2022/07/15 06:52:51;;;;;;;6.45;1.17;;;17.30;99.90;;;;;;5091803;28;20121;-72
2022/07/15 06:55:17;;;;;;;6.22;1.20;;;17.50;99.90;;;;;;5064899;28;20052;-73
2022/07/15 06:57:42;;;;;;;5.38;1.00;;;17.90;99.90;;;;;;5078136;28;20044;-72
2022/07/15 07:00:11;;;;;;;4.25;0.93;;;18.10;99.90;;;;;;5082797;28;20097;-75
2022/07/15 07:02:37;;;;;;;6.03;1.10;;;18.20;99.90;;;;;;5071651;28;20062;-73
2022/07/15 07:05:04;;;;;;;4.75;0.88;;;18.10;99.90;;;;;;5076245;28;20048;-73
2022/07/15 07:07:30;;;;;;;4.40;1.10;;;18.20;99.90;;;;;;5077913;28;20056;-73
2022/07/15 07:09:56;;;;;;;6.80;1.15;;;18.20;99.90;;;;;;5084018;28;20045;-74
2022/07/15 07:12:21;;;;;;;5.15;1.00;;;18.30;99.90;;;;;;5099220;28;20048;-73
2022/07/15 07:14:47;;;;;;;6.72;1.05;;;18.40;99.90;;;;;;5080460;28;20399;-74
2022/07/15 07:17:13;;;;;;;4.20;0.80;;;18.50;99.90;;;;;;5081620;28;20297;-71
2022/07/15 07:19:39;;;;;;;8.07;1.10;;;18.50;99.90;;;;;;5084468;28;20048;-72
2022/07/15 07:22:04;;;;;;;5.57;0.88;;;18.70;99.90;;;;;;5085651;28;20052;-73
2022/07/15 07:24:30;;;;;;;3.50;0.90;;;18.80;99.90;;;;;;5067460;28;20101;-76
2022/07/15 07:26:56;;;;;;;3.78;0.80;;;19.30;99.90;;;;;;5066300;28;20084;-72
2022/07/15 07:29:22;;;;;;;6.45;1.05;;;19.60;99.90;;;;;;5079780;28;20079;-72
2022/07/15 07:31:49;;;;;;;5.80;1.00;;;19.20;99.20;;;;;;5086914;28;20441;-76
2022/07/15 07:34:15;;;;;;;5.55;1.00;;;19.10;99.30;;;;;;5074281;28;20037;-74
2022/07/15 07:36:41;;;;;;;4.50;0.80;;;19.30;99.90;;;;;;5063948;28;20523;-74
2022/07/15 07:39:07;;;;;;;5.85;1.10;;;19.50;99.50;;;;;;5061757;28;20093;-74
2022/07/15 07:41:32;;;;;;;5.10;0.95;;;19.80;98.20;;;;;;5081991;28;20059;-72
2022/07/15 07:43:58;;;;;;;4.22;0.80;;;20.00;97.60;;;;;;5082723;28;20082;-75
2022/07/15 07:46:24;;;;;;;8.63;1.10;;;19.90;96.00;;;;;;5085340;28;20040;-74
2022/07/15 07:48:49;;;;;;;4.97;1.00;;;20.10;96.10;;;;;;5084555;28;20761;-71
2022/07/15 07:51:17;;;;;;;5.32;0.95;;;19.80;94.00;;;;;;5083862;28;20044;-74
2022/07/15 07:53:42;;;;;;;4.82;1.00;;;19.70;96.50;;;;;;5085601;28;20052;-73
2022/07/15 07:56:08;;;;;;;4.65;0.90;;;19.90;95.60;;;;;;5079187;28;20098;-75
2022/07/15 07:58:34;;;;;;;3.67;0.80;;;20.40;93.90;;;;;;5070294;28;20052;-77
2022/07/15 08:01:00;;;;;;;6.70;0.90;;;20.80;94.00;;;;;;5076059;28;20031;-73
2022/07/15 08:03:27;;;;;;;4.03;1.00;;;20.70;93.30;;;;;;5081230;28;20032;-74
2022/07/15 08:05:53;;;;;;;2.90;0.77;;;21.00;92.90;;;;;;5075572;28;20484;-72
2022/07/15 08:08:20;;;;;;;5.22;1.00;;;21.40;92.00;;;;;;5071967;28;20079;-73
2022/07/15 08:10:53;;;;;;;2.92;0.90;;;22.00;91.20;;;;;;5059769;28;20525;-72
2022/07/15 08:13:21;;;;;;;3.15;0.90;;;22.30;90.20;;;;;;5085202;28;20033;-73
2022/07/15 08:15:47;;;;;;;5.38;0.95;;;22.70;86.20;;;;;;5075364;28;20109;-74
2022/07/15 08:18:14;;;;;;;4.80;0.85;;;22.60;84.30;;;;;;5082051;28;20116;-73
2022/07/15 08:20:40;;;;;;;4.50;0.80;;;22.10;80.50;;;;;;5085189;28;20043;-73
2022/07/15 08:23:05;;;;;;;5.57;0.95;;;21.70;82.10;;;;;;5089281;28;20043;-72
2022/07/15 08:25:37;;;;;;;4.55;0.90;;;21.30;82.80;;;;;;5083856;28;20044;-73
2022/07/15 08:28:03;;;;;;;3.67;0.80;;;21.20;85.50;;;;;;5074723;28;20036;-75
2022/07/15 08:30:32;;;;;;;3.60;0.80;;;21.40;87.90;;;;;;5081221;28;20158;-73
2022/07/15 08:32:58;;;;;;;4.28;0.73;;;21.80;85.40;;;;;;5084701;28;20036;-74
2022/07/15 08:35:25;;;;;;;3.67;0.70;;;21.80;78.90;;;;;;5083922;28;20041;-72
2022/07/15 08:37:50;;;;;;;3.67;0.82;;;21.80;80.10;;;;;;5084310;28;20486;-73
2022/07/15 08:40:17;;;;;;;4.28;0.80;;;21.60;79.00;;;;;;5086387;28;20072;-72
2022/07/15 08:42:45;;;;;;;3.95;0.75;;;22.00;80.40;;;;;;5077230;28;20470;-73
2022/07/15 08:45:13;;;;;;;3.50;0.63;;;22.10;78.90;;;;;;5083282;28;20048;-75
2022/07/15 08:47:41;;;;;;;3.80;0.80;;;22.10;76.00;;;;;;5078896;28;20049;-72
2022/07/15 08:50:12;;;;;;;4.32;0.90;;;22.00;75.90;;;;;;5067722;28;20485;-74
2022/07/15 08:52:39;;;;;;;3.90;0.80;;;21.50;75.10;;;;;;5078631;28;20047;-73
2022/07/15 08:55:06;;;;;;;3.28;0.70;;;21.20;77.30;;;;;;5067311;28;20768;-70
2022/07/15 08:57:32;;;;;;;5.07;0.77;;;20.90;79.00;;;;;;5049777;28;20111;-72
2022/07/15 08:59:58;;;;;;;3.35;0.70;;;20.60;79.10;;;;;;5081769;28;20052;-74
2022/07/15 09:02:24;;;;;;;4.97;0.80;;;20.40;81.30;;;;;;5083005;28;20036;-72
2022/07/15 09:05:18;;;;;;;4.20;0.80;;;20.10;82.40;;;;;;5078112;28;20044;-71
2022/07/15 09:08:01;;;;;;;3.63;0.70;;;20.10;83.10;;;;;;5079296;28;20093;-72
2022/07/15 09:10:50;;;;;;;3.17;0.80;;;20.60;87.00;;;;;;5078085;28;20051;-72
2022/07/15 09:13:31;;;;;;;2.67;0.80;;;21.20;78.70;;;;;;5075693;28;20166;-74
2022/07/15 09:16:00;;;;;;;3.60;0.80;;;21.30;81.70;;;;;;5076692;28;20467;-70
2022/07/15 09:18:29;;;;;;;3.95;0.73;;;21.10;80.80;;;;;;5084010;28;20052;-72
2022/07/15 09:20:57;;;;;;;2.97;0.70;;;21.00;78.20;;;;;;5081232;28;20123;-74
2022/07/15 09:23:31;;;;;;;3.63;0.70;;;20.90;78.10;;;;;;5076851;28;20098;-71
2022/07/15 09:26:26;;;;;;;5.00;0.88;;;20.70;78.40;;;;;;5081253;28;20117;-75
2022/07/15 09:28:52;;;;;;;3.80;0.70;;;20.60;78.90;;;;;;5080843;28;20044;-72
2022/07/15 09:34:20;;;;;;;2.92;0.80;;;20.20;80.70;;;;;;5081976;28;20048;-73
2022/07/15 09:36:52;;;;;;;2.80;0.70;;;20.00;81.70;;;;;;5079664;28;20408;-75
2022/07/15 09:39:19;;;;;;;;;;;19.70;82.30;;;;;;5058515;28;20080;-75
2022/07/15 09:41:45;;;;;;;2.40;0.60;;;19.60;83.40;;;;;;5081096;28;19924;-73
2022/07/15 09:44:20;;;;;;;4.05;0.70;;;19.40;84.50;;;;;;5084111;28;20419;-74
2022/07/15 09:46:51;;;;;;;4.57;0.70;;;19.20;84.30;;;;;;5085288;28;20489;-73
2022/07/15 09:49:32;;;;;;;3.22;0.77;;;19.20;85.90;;;;;;5087537;28;21473;-73
2022/07/15 09:52:08;;;;;;;3.60;0.77;;;19.10;86.20;;;;;;5069492;28;20059;-73
2022/07/15 09:54:37;;;;;;;3.60;0.90;;;19.20;85.90;;;;;;5084402;28;20121;-74
2022/07/15 09:57:06;;;;;;;2.95;0.65;;;19.20;85.70;;;;;;5087091;28;20032;-72
2022/07/15 09:59:33;;;;;;;3.80;0.80;;;19.30;86.40;;;;;;5087682;28;20466;-74
2022/07/15 10:01:59;;;;;;;4.00;0.65;;;19.60;88.10;;;;;;5086480;28;20051;-73
2022/07/15 10:04:27;;;;;;;2.88;0.80;;;20.10;89.40;;;;;;5088682;28;20123;-73
2022/07/15 10:06:55;;;;;;;2.65;0.77;;;20.50;86.10;;;;;;5087826;28;20374;-74
2022/07/15 10:09:28;;;;;;;3.63;0.70;;;20.70;82.00;;;;;;5087446;28;20043;-73
2022/07/15 10:12:12;;;;;;;2.67;0.70;;;20.60;82.40;;;;;;5085151;28;20048;-74
2022/07/15 10:14:53;;;;;;;4.45;0.80;;;20.40;81.50;;;;;;5076422;28;20098;-73
2022/07/15 10:17:49;;;;;;;3.10;0.77;;;20.10;82.40;;;;;;5082023;28;20048;-72
2022/07/15 10:20:23;;;;;;;2.80;0.80;;;19.80;83.00;;;;;;5081817;28;20060;-72
2022/07/15 10:23:12;;;;;;;2.50;0.68;;;19.60;85.40;;;;;;5067823;28;20043;-72
2022/07/15 10:25:58;;;;;;;2.85;0.70;;;19.50;83.80;;;;;;5066202;28;20043;-72
2022/07/15 10:28:52;;;;;;;2.58;0.65;;;19.30;84.80;;;;;;5086928;28;20074;-71
2022/07/15 10:31:21;;;;;;;1.95;0.57;;;19.30;84.90;;;;;;5085548;28;20048;-73
2022/07/15 10:34:02;;;;;;;3.35;0.70;;;19.30;85.10;;;;;;5078592;28;20040;-72
2022/07/15 10:36:49;;;;;;;3.20;0.80;;;19.40;85.80;;;;;;5080780;28;20063;-74
2022/07/15 10:39:20;;;;;;;2.95;0.70;;;19.60;83.30;;;;;;5061472;28;20052;-73
2022/07/15 10:41:58;;;;;;;2.15;0.70;;;19.60;83.80;;;;;;5078716;28;20040;-73
2022/07/15 10:44:27;;;;;;;4.13;0.80;;;19.60;85.00;;;;;;5083941;28;20071;-73
2022/07/15 10:47:14;;;;;;;3.58;0.70;;;19.90;86.80;;;;;;5084607;28;20037;-73
2022/07/15 10:49:48;;;;;;;3.30;0.70;;;20.20;85.60;;;;;;5077890;28;20043;-72
2022/07/15 10:52:31;;;;;;;2.72;0.65;;;20.30;85.00;;;;;;5075722;28;20127;-73
2022/07/15 10:54:59;;;;;;;3.92;0.85;;;20.60;84.10;;;;;;5083073;28;20067;-73
2022/07/15 10:57:40;;;;;;;3.28;0.70;;;20.70;79.30;;;;;;5082373;28;20098;-73
2022/07/15 11:00:26;;;;;;;2.28;0.60;;;20.90;79.70;;;;;;5085216;28;20044;-73
2022/07/15 11:03:02;;;;;;;2.75;0.70;;;21.20;82.00;;;;;;5086784;28;20054;-74
2022/07/15 11:05:28;;;;;;;3.15;0.80;;;21.50;75.00;;;;;;5085741;28;20124;-72
2022/07/15 11:07:54;;;;;;;3.70;0.60;;;21.70;77.10;;;;;;5086264;28;20430;-74
2022/07/15 11:10:21;;;;;;;2.22;0.70;;;22.10;76.10;;;;;;5087814;28;20048;-75
2022/07/15 11:12:50;;;;;;;2.78;0.73;;;22.60;75.60;;;;;;5087274;28;20440;-74
2022/07/15 11:15:19;;;;;;;3.25;0.60;;;23.00;72.10;;;;;;5085318;28;20040;-73
2022/07/15 11:17:47;;;;;;;3.40;0.80;;;23.10;69.30;;;;;;5072729;28;20128;-73
2022/07/15 11:20:15;;;;;;;2.00;0.60;;;23.10;69.80;;;;;;5079217;28;20040;-72
2022/07/15 11:22:47;;;;;;;3.28;0.70;;;22.90;68.90;;;;;;5083275;28;20040;-72
2022/07/15 11:25:21;;;;;;;3.50;0.73;;;22.70;68.80;;;;;;5088115;28;20040;-73
2022/07/15 11:28:04;;;;;;;3.03;0.68;;;22.70;69.50;;;;;;5084250;28;20048;-72
2022/07/15 11:30:54;;;;;;;3.55;0.90;;;22.40;70.00;;;;;;5081026;28;20051;-73
2022/07/15 11:33:26;;;;;;;2.35;0.70;;;22.20;70.80;;;;;;5069253;28;21230;-75
2022/07/15 11:35:58;;;;;;;2.70;0.70;;;22.20;72.70;;;;;;5064651;28;20064;-76
2022/07/15 11:38:29;;;;;;;3.78;0.70;;;22.10;70.60;;;;;;5086780;28;20036;-74
2022/07/15 11:46:29;;;;;;;2.65;0.70;;;22.60;72.10;;;;;;5083830;28;20047;-72
2022/07/15 11:48:56;;;;;;;2.70;0.60;;;23.00;70.40;;;;;;5076378;28;20482;-72
2022/07/15 11:51:30;;;;;;;2.45;0.60;;;23.30;67.40;;;;;;5083626;28;21070;-71
2022/07/15 11:53:57;;;;;;;4.45;0.57;;;23.60;65.70;;;;;;5080396;28;20058;-74
2022/07/15 11:56:26;;;;;;;2.33;0.60;;;23.40;65.20;;;;;;5033995;28;20117;-72
2022/07/15 11:58:54;;;;;;;3.97;0.80;;;23.10;66.40;;;;;;5065144;28;20379;-70
2022/07/15 12:01:28;;;;;;;5.43;0.75;;;22.50;65.00;;;;;;5071256;28;20090;-72
2022/07/15 12:03:55;;;;;;;4.15;0.77;;;22.20;66.00;;;;;;5063574;28;20147;-78
2022/07/15 12:06:23;;;;;;;3.58;0.80;;;21.80;66.10;;;;;;5063159;28;20094;-70
2022/07/15 12:08:55;;;;;;;3.60;0.80;;;21.50;67.80;;;;;;5061245;28;20048;-71
2022/07/15 12:11:27;;;;;;;1.65;0.57;;;21.20;69.50;;;;;;5067073;28;20051;-72
2022/07/15 12:13:57;;;;;;;2.65;0.70;;;21.10;70.30;;;;;;5062617;28;20707;-76
2022/07/15 12:16:32;;;;;;;2.17;0.70;;;21.00;71.70;;;;;;5086342;28;20104;-75
2022/07/15 12:19:12;;;;;;;2.22;0.70;;;20.90;71.40;;;;;;5072363;28;20479;-71
2022/07/15 12:21:39;;;;;;;2.88;0.70;;;20.90;73.60;;;;;;5069341;28;20502;-74
2022/07/15 12:24:16;;;;;;;3.20;0.70;;;20.90;73.30;;;;;;5071929;28;20063;-72
2022/07/15 12:26:54;;;;;;;2.60;0.70;;;20.80;73.30;;;;;;5069764;28;20052;-71
2022/07/15 12:29:22;;;;;;;3.53;0.75;;;20.80;72.50;;;;;;5070384;28;20048;-74
2022/07/15 12:31:53;;;;;;;2.72;0.65;;;20.90;73.90;;;;;;5070867;28;20105;-71
2022/07/15 12:34:19;;;;;;;5.70;0.80;;;20.90;72.20;;;;;;5071625;28;20042;-71
2022/07/15 12:36:58;;;;;;;3.83;0.70;;;20.90;72.90;;;;;;5071731;28;20048;-72
2022/07/15 12:39:25;;;;;;;6.45;0.90;;;21.00;74.40;;;;;;5067376;28;20055;-71
2022/07/15 12:42:04;;;;;;;4.60;0.80;;;21.00;73.60;;;;;;5071306;28;20130;-72
2022/07/15 12:44:31;;;;;;;3.65;0.80;;;20.90;73.50;;;;;;5067787;28;20078;-74
2022/07/15 12:47:00;;;;;;;3.83;0.80;;;20.90;74.60;;;;;;5071670;28;20087;-75
2022/07/15 12:49:49;;;;;;;2.90;0.70;;;20.90;75.40;;;;;;5053189;28;20044;-73
2022/07/15 12:52:37;;;;;;;4.00;0.80;;;20.80;74.80;;;;;;5052466;28;20044;-72
2022/07/15 12:55:39;;;;;;;3.50;0.80;;;20.90;74.90;;;;;;5042510;28;20517;-72
2022/07/15 12:58:06;;;;;;;;;;;20.90;74.00;;;;;;5058068;28;20135;-76
2022/07/15 13:00:33;;;;;;;5.07;0.80;;;21.10;75.20;;;;;;5066739;28;19931;-73
2022/07/15 13:03:02;;;;;;;2.47;0.73;;;21.30;74.50;;;;;;5072638;28;20387;-71
2022/07/15 13:05:38;;;;;;;2.65;0.77;;;21.40;74.60;;;;;;5089095;28;20036;-72